Terminal Aerodrome Forecast
Issued by NWS Missoula, MT

Home | Current Version | Previous Version | Text Only | Print | Product List | Glossary On
Versions: 1 2 3 4 5 6 7 8 9 10 11 12
000
FTUS45 KMSO 231100
TAFGPI
TAF
KGPI 231127Z 2312/2412 19012KT P6SM BKN040
     FM231700 22018G28KT P6SM VCSH BKN060
     FM240200 22010KT P6SM BKN100=

USA.gov is the U.S. government's official web portal to all federal, state and local government web resources and services.